Time;durP1;ratioP1;P1;durP2;ratioP2;P2;SDS_P1;SDS_P2;PMS_P1;PMS_P2;Temp;Humidity;BMP_temperature;BMP_pressure;BME280_temperature;BME280_humidity;BME280_pressure;Samples;Min_cycle;Max_cycle;Signal;HPM_P1;HPM_P2
2024/04/17 00:01:33;;;;;;;26.08;5.63;;;8.90;99.90;;;;;;5450649;26;20001;-70
2024/04/17 00:03:59;;;;;;;12.65;3.63;;;8.80;99.90;;;;;;5426888;26;20002;-70
2024/04/17 00:06:25;;;;;;;22.27;4.03;;;8.80;99.90;;;;;;5449938;26;20015;-70
2024/04/17 00:08:50;;;;;;;18.63;4.70;;;8.70;99.90;;;;;;5450858;26;20026;-70
2024/04/17 00:11:16;;;;;;;20.67;5.28;;;8.70;99.90;;;;;;5450523;26;20003;-70
2024/04/17 00:13:42;;;;;;;20.60;4.70;;;8.70;99.90;;;;;;5450390;26;20072;-70
2024/04/17 00:16:08;;;;;;;20.35;4.15;;;8.70;99.90;;;;;;5450619;26;20344;-70
2024/04/17 00:18:34;;;;;;;18.70;4.65;;;8.70;99.90;;;;;;5449513;26;20003;-70
2024/04/17 00:20:59;;;;;;;20.42;5.10;;;8.70;99.90;;;;;;5449726;26;20003;-71
2024/04/17 00:23:27;;;;;;;22.33;4.90;;;8.70;99.90;;;;;;5448120;26;20336;-71
2024/04/17 00:25:52;;;;;;;18.10;4.82;;;8.70;99.90;;;;;;5450689;26;20026;-70
2024/04/17 00:28:18;;;;;;;20.77;4.82;;;8.60;99.90;;;;;;5428996;26;20010;-70
2024/04/17 00:30:45;;;;;;;23.02;4.93;;;8.60;99.90;;;;;;5453380;26;20336;-69
2024/04/17 00:33:11;;;;;;;14.82;3.72;;;8.60;99.90;;;;;;5453238;26;19999;-70
2024/04/17 00:35:37;;;;;;;18.02;4.47;;;8.60;99.90;;;;;;5453474;26;19999;-70
2024/04/17 00:38:03;;;;;;;18.92;4.85;;;8.60;99.90;;;;;;5452428;26;20496;-70
2024/04/17 00:40:32;;;;;;;17.70;4.30;;;8.60;99.90;;;;;;5454549;26;20002;-69
2024/04/17 00:43:00;;;;;;;29.02;4.70;;;8.60;99.90;;;;;;5452430;26;20002;-70
2024/04/17 00:45:44;;;;;;;11.63;3.55;;;8.50;99.90;;;;;;5451069;26;20027;-70
2024/04/17 00:48:13;;;;;;;18.67;4.05;;;8.50;99.90;;;;;;5453923;26;20040;-69
2024/04/17 00:50:42;;;;;;;19.27;5.07;;;8.40;99.90;;;;;;5453279;26;20528;-70
2024/04/17 00:53:09;;;;;;;17.77;4.22;;;8.40;99.90;;;;;;5451879;26;20014;-70
2024/04/17 00:55:37;;;;;;;17.90;4.30;;;8.40;99.90;;;;;;5450298;26;20003;-70
2024/04/17 00:58:04;;;;;;;20.55;4.60;;;8.40;99.90;;;;;;5452774;26;20455;-70
2024/04/17 01:00:30;;;;;;;14.15;3.88;;;8.30;99.90;;;;;;5451405;26;20324;-70
2024/04/17 01:02:56;;;;;;;17.33;4.55;;;8.30;99.90;;;;;;5453323;26;20013;-70
2024/04/17 01:05:22;;;;;;;16.10;5.05;;;8.30;99.90;;;;;;5453310;26;20013;-71
2024/04/17 01:07:47;;;;;;;13.88;4.40;;;8.30;99.90;;;;;;5452646;26;20011;-70
2024/04/17 01:10:14;;;;;;;16.73;4.65;;;8.30;99.90;;;;;;5453056;26;20002;-70
2024/04/17 01:12:39;;;;;;;14.02;4.22;;;8.20;99.90;;;;;;5451898;26;20027;-70
2024/04/17 01:15:09;;;;;;;12.82;4.40;;;8.20;99.90;;;;;;5451737;26;20459;-70
2024/04/17 01:17:36;;;;;;;17.13;5.18;;;8.20;99.90;;;;;;5452869;26;20140;-70
2024/04/17 01:20:03;;;;;;;19.85;4.32;;;8.10;99.90;;;;;;5452956;26;20011;-70
2024/04/17 01:22:28;;;;;;;12.55;4.47;;;8.20;99.90;;;;;;5447048;26;20010;-69
2024/04/17 01:24:54;;;;;;;12.57;4.00;;;8.10;99.90;;;;;;5451378;26;20006;-70
2024/04/17 01:27:20;;;;;;;20.65;4.30;;;8.10;99.90;;;;;;5452289;26;20481;-70
2024/04/17 01:29:46;;;;;;;14.07;4.82;;;8.10;99.90;;;;;;5452426;26;19994;-70
2024/04/17 01:32:12;;;;;;;25.77;5.35;;;8.10;99.90;;;;;;5449819;26;20459;-70
2024/04/17 01:34:37;;;;;;;19.08;4.43;;;8.00;99.90;;;;;;5451943;26;20480;-70
2024/04/17 01:37:03;;;;;;;17.20;5.45;;;8.00;99.90;;;;;;5452951;26;19998;-70
2024/04/17 01:39:29;;;;;;;14.68;4.57;;;8.00;99.90;;;;;;5452410;26;19999;-71
2024/04/17 01:41:55;;;;;;;15.77;4.70;;;8.00;99.90;;;;;;5453097;26;19991;-70
2024/04/17 01:44:22;;;;;;;16.83;4.75;;;8.00;99.90;;;;;;5453065;26;20005;-71
2024/04/17 01:46:48;;;;;;;11.95;4.65;;;7.90;99.90;;;;;;5452975;26;20351;-70
2024/04/17 01:49:14;;;;;;;16.65;4.75;;;7.90;99.90;;;;;;5451311;26;19995;-71
2024/04/17 01:51:39;;;;;;;16.30;4.50;;;7.90;99.90;;;;;;5451949;26;20565;-70
2024/04/17 01:54:05;;;;;;;19.02;4.75;;;7.80;99.90;;;;;;5451318;26;20500;-70
2024/04/17 01:56:31;;;;;;;11.65;4.28;;;7.80;99.90;;;;;;5451700;26;20006;-70
2024/04/17 01:58:56;;;;;;;17.38;4.57;;;7.80;99.90;;;;;;5453056;26;19995;-70
2024/04/17 02:01:22;;;;;;;13.40;4.57;;;7.80;99.90;;;;;;5453024;26;19991;-70
2024/04/17 02:03:48;;;;;;;14.30;5.07;;;7.80;99.90;;;;;;5453357;26;20374;-70
2024/04/17 02:06:15;;;;;;;18.52;4.72;;;7.80;99.90;;;;;;5451896;26;19999;-70
2024/04/17 02:08:41;;;;;;;12.20;4.80;;;7.80;99.90;;;;;;5452819;26;20075;-70
2024/04/17 02:11:07;;;;;;;21.17;5.63;;;7.80;99.90;;;;;;5452978;26;19999;-70
2024/04/17 02:13:33;;;;;;;24.92;5.93;;;7.70;99.90;;;;;;5452154;26;20010;-70
2024/04/17 02:16:02;;;;;;;15.43;3.63;;;7.70;99.90;;;;;;5452045;26;19999;-70
2024/04/17 02:18:28;;;;;;;13.35;4.28;;;7.70;99.90;;;;;;5452748;26;20010;-70
2024/04/17 02:20:54;;;;;;;13.43;4.47;;;7.70;99.90;;;;;;5452390;26;19998;-70
2024/04/17 02:23:20;;;;;;;14.40;4.32;;;7.70;99.90;;;;;;5453255;26;19999;-70
2024/04/17 02:25:46;;;;;;;15.07;4.35;;;7.60;99.90;;;;;;5451732;26;19995;-70
2024/04/17 02:28:11;;;;;;;23.08;5.50;;;7.60;99.90;;;;;;5452223;26;20012;-70
2024/04/17 02:30:37;;;;;;;17.27;4.68;;;7.60;99.90;;;;;;5452455;26;20014;-70
2024/04/17 02:33:03;;;;;;;16.52;4.68;;;7.60;99.90;;;;;;5452765;26;20083;-70
2024/04/17 02:35:29;;;;;;;15.68;4.90;;;7.60;99.90;;;;;;5452245;26;20023;-70
2024/04/17 02:37:54;;;;;;;15.00;4.32;;;7.60;99.90;;;;;;5452580;26;20027;-70
2024/04/17 02:40:20;;;;;;;17.45;4.60;;;7.60;99.90;;;;;;5452935;26;20026;-70
2024/04/17 02:42:46;;;;;;;18.60;5.30;;;7.60;99.90;;;;;;5452987;26;20056;-70
2024/04/17 02:45:11;;;;;;;15.15;4.70;;;7.50;99.90;;;;;;5452200;26;20359;-69
2024/04/17 02:47:37;;;;;;;14.68;4.13;;;7.50;99.90;;;;;;5451791;26;19995;-70
2024/04/17 02:50:03;;;;;;;14.13;3.92;;;7.50;99.90;;;;;;5452414;26;19998;-70
2024/04/17 02:52:29;;;;;;;15.02;4.05;;;7.50;99.90;;;;;;5449503;26;19999;-69
2024/04/17 02:54:55;;;;;;;12.45;4.82;;;7.50;99.90;;;;;;5452419;26;20033;-70
2024/04/17 02:57:21;;;;;;;20.27;5.65;;;7.50;99.90;;;;;;5452650;26;20002;-70
2024/04/17 02:59:46;;;;;;;12.38;4.60;;;7.40;99.90;;;;;;5452076;26;20064;-70
2024/04/17 03:02:12;;;;;;;18.35;4.22;;;7.40;99.90;;;;;;5452548;26;20450;-69
2024/04/17 03:04:38;;;;;;;14.25;4.55;;;7.40;99.90;;;;;;5451573;26;20013;-70
2024/04/17 03:07:03;;;;;;;20.92;5.07;;;7.40;99.90;;;;;;5451769;26;20030;-70
2024/04/17 03:09:29;;;;;;;18.00;4.82;;;7.40;99.90;;;;;;5452175;26;20406;-70
2024/04/17 03:11:55;;;;;;;17.50;5.28;;;7.30;99.90;;;;;;5452460;26;19995;-69
2024/04/17 03:14:21;;;;;;;16.52;5.72;;;7.30;99.90;;;;;;5451727;26;19999;-70
2024/04/17 03:16:47;;;;;;;16.70;4.47;;;7.30;99.90;;;;;;5451123;26;20015;-70
2024/04/17 03:19:13;;;;;;;18.65;5.28;;;7.30;99.90;;;;;;5452288;26;19998;-69
2024/04/17 03:21:39;;;;;;;18.02;5.32;;;7.30;99.90;;;;;;5451776;26;20075;-70
2024/04/17 03:24:05;;;;;;;26.40;6.35;;;7.30;99.90;;;;;;5452223;26;20072;-69
2024/04/17 03:26:31;;;;;;;20.58;5.60;;;7.30;99.90;;;;;;5451549;26;20455;-70
2024/04/17 03:28:56;;;;;;;15.57;5.35;;;7.30;99.90;;;;;;5448816;26;20005;-69
2024/04/17 03:31:22;;;;;;;17.75;5.40;;;7.30;99.90;;;;;;5450681;26;20067;-69
2024/04/17 03:33:48;;;;;;;16.98;5.40;;;7.30;99.90;;;;;;5451737;26;20003;-70
2024/04/17 03:36:14;;;;;;;18.00;5.50;;;7.30;99.90;;;;;;5451619;26;19999;-69
2024/04/17 03:38:40;;;;;;;18.40;5.68;;;7.40;99.90;;;;;;5448362;26;20474;-70
2024/04/17 03:41:05;;;;;;;21.75;6.43;;;7.40;99.90;;;;;;5451019;26;20021;-70
2024/04/17 03:43:31;;;;;;;16.15;6.88;;;7.40;99.90;;;;;;5450923;26;20441;-69
2024/04/17 03:45:57;;;;;;;17.70;6.10;;;7.40;99.90;;;;;;5451171;26;20047;-69
2024/04/17 03:48:23;;;;;;;21.10;6.90;;;7.40;99.90;;;;;;5451190;26;20128;-69
2024/04/17 03:50:48;;;;;;;17.75;7.38;;;7.40;99.90;;;;;;5451101;26;19995;-70
2024/04/17 03:53:14;;;;;;;16.92;7.40;;;7.30;99.90;;;;;;5451777;26;20005;-70
2024/04/17 03:55:40;;;;;;;15.80;7.40;;;7.50;99.90;;;;;;5451691;26;20005;-69
2024/04/17 03:58:05;;;;;;;17.13;6.72;;;7.50;99.90;;;;;;5449506;26;20009;-70
2024/04/17 04:00:31;;;;;;;15.85;5.75;;;7.50;99.90;;;;;;5454198;26;20019;-69
2024/04/17 04:02:57;;;;;;;14.07;6.15;;;7.60;99.90;;;;;;5454594;26;20048;-70
2024/04/17 04:05:22;;;;;;;13.50;5.68;;;7.60;99.90;;;;;;5454310;26;20397;-70
2024/04/17 04:07:48;;;;;;;15.15;7.05;;;7.70;99.90;;;;;;5454495;26;20397;-70
2024/04/17 04:10:14;;;;;;;12.40;5.97;;;7.70;99.90;;;;;;5454836;26;20348;-69
2024/04/17 04:12:39;;;;;;;16.63;6.65;;;7.70;99.90;;;;;;5454382;26;20018;-69
2024/04/17 04:15:06;;;;;;;19.08;6.47;;;7.70;99.90;;;;;;5453724;26;19998;-70
2024/04/17 04:17:32;;;;;;;20.00;7.13;;;7.80;99.90;;;;;;5453742;26;20002;-70
2024/04/17 04:19:58;;;;;;;16.60;8.35;;;7.90;99.90;;;;;;5454448;26;19999;-70
2024/04/17 04:22:23;;;;;;;12.73;6.85;;;7.90;99.90;;;;;;5454386;26;19999;-69
2024/04/17 04:24:49;;;;;;;16.23;7.55;;;7.90;99.90;;;;;;5454277;26;20443;-69
2024/04/17 04:27:15;;;;;;;16.13;7.50;;;7.90;99.90;;;;;;5442478;26;20009;-69
2024/04/17 04:29:41;;;;;;;13.82;7.72;;;8.00;99.90;;;;;;5424382;26;20000;-69
2024/04/17 04:32:06;;;;;;;18.63;7.20;;;8.00;99.90;;;;;;5418593;26;20448;-69
2024/04/17 04:34:32;;;;;;;15.27;7.25;;;8.00;99.90;;;;;;5416439;26;19996;-69
2024/04/17 04:36:58;;;;;;;12.50;7.55;;;8.00;99.90;;;;;;5416699;26;20510;-69
2024/04/17 04:39:24;;;;;;;13.38;6.45;;;8.10;99.90;;;;;;5418204;26;20421;-69
2024/04/17 04:41:49;;;;;;;11.80;6.60;;;8.10;99.90;;;;;;5418198;26;20046;-69
2024/04/17 04:44:15;;;;;;;13.82;6.75;;;8.10;99.90;;;;;;5417587;26;20010;-69
2024/04/17 04:46:41;;;;;;;17.00;7.15;;;8.10;99.90;;;;;;5418849;26;20008;-68
2024/04/17 04:49:06;;;;;;;14.48;8.07;;;8.10;99.90;;;;;;5416461;26;19995;-68
2024/04/17 04:51:32;;;;;;;13.02;6.80;;;8.10;99.90;;;;;;5435789;26;20393;-69
2024/04/17 04:53:58;;;;;;;12.65;5.95;;;8.10;99.90;;;;;;5438225;26;20534;-68
2024/04/17 04:56:23;;;;;;;13.10;5.63;;;8.10;99.90;;;;;;5424886;26;20440;-69
2024/04/17 04:58:49;;;;;;;11.48;6.13;;;8.10;99.90;;;;;;5418346;26;19996;-69
2024/04/17 05:01:15;;;;;;;7.03;4.95;;;8.00;99.90;;;;;;5451728;26;20010;-71
2024/04/17 05:03:40;;;;;;;7.88;3.92;;;8.00;99.90;;;;;;5451697;26;20455;-69
2024/04/17 05:06:06;;;;;;;7.10;4.20;;;8.00;99.90;;;;;;5453788;26;20003;-69
2024/04/17 05:08:32;;;;;;;6.20;4.60;;;8.00;99.90;;;;;;5453489;26;20014;-71
2024/04/17 05:10:57;;;;;;;8.45;4.20;;;8.00;99.90;;;;;;5450756;26;20011;-68
2024/04/17 05:13:23;;;;;;;8.20;4.25;;;8.00;99.90;;;;;;5453712;26;20002;-69
2024/04/17 05:15:49;;;;;;;6.82;4.10;;;8.00;99.90;;;;;;5454305;26;20455;-69
2024/04/17 05:18:15;;;;;;;10.68;4.80;;;8.00;99.90;;;;;;5452949;26;20003;-69
2024/04/17 05:20:40;;;;;;;7.32;4.72;;;8.00;99.90;;;;;;5453636;26;19999;-69
2024/04/17 05:23:06;;;;;;;8.15;5.22;;;8.00;99.90;;;;;;5453682;26;20071;-70
2024/04/17 05:25:32;;;;;;;9.65;5.03;;;8.00;99.90;;;;;;5453665;26;19999;-70
2024/04/17 05:27:57;;;;;;;10.82;4.93;;;8.00;99.90;;;;;;5453960;26;19999;-68
2024/04/17 05:30:23;;;;;;;9.35;5.30;;;8.00;99.90;;;;;;5453916;26;19995;-69
2024/04/17 05:32:49;;;;;;;9.43;5.18;;;8.10;99.90;;;;;;5450798;26;20035;-70
2024/04/17 05:35:15;;;;;;;10.23;5.10;;;8.10;99.90;;;;;;5452172;26;20073;-69
2024/04/17 05:37:40;;;;;;;12.43;5.63;;;8.10;99.90;;;;;;5453939;26;19995;-69
2024/04/17 05:40:06;;;;;;;10.30;5.45;;;8.20;99.90;;;;;;5452499;26;20071;-69
2024/04/17 05:42:32;;;;;;;11.27;5.50;;;8.10;99.90;;;;;;5453704;26;20010;-69
2024/04/17 05:44:58;;;;;;;13.15;5.07;;;8.10;99.90;;;;;;5453669;26;20436;-69
2024/04/17 05:47:24;;;;;;;14.30;9.88;;;8.20;99.90;;;;;;5451849;26;19999;-70
2024/04/17 05:49:50;;;;;;;7.82;4.68;;;8.30;99.90;;;;;;5453316;26;20479;-69
2024/04/17 05:52:17;;;;;;;8.95;5.25;;;8.30;99.90;;;;;;5453552;26;20002;-69
2024/04/17 05:54:43;;;;;;;9.15;4.47;;;8.20;99.90;;;;;;5452920;26;20006;-69
2024/04/17 05:57:08;;;;;;;8.48;4.60;;;8.20;99.90;;;;;;5451445;26;20400;-70
2024/04/17 05:59:35;;;;;;;9.50;4.50;;;8.30;99.90;;;;;;5452486;26;20010;-69
2024/04/17 06:02:01;;;;;;;7.60;5.25;;;8.40;99.90;;;;;;5453513;26;20002;-69
2024/04/17 06:04:29;;;;;;;8.43;5.18;;;8.40;99.90;;;;;;5453348;26;20006;-69
2024/04/17 06:06:55;;;;;;;11.70;5.05;;;8.40;99.90;;;;;;5418194;26;20004;-70
2024/04/17 06:09:21;;;;;;;8.55;4.80;;;8.50;99.90;;;;;;5447341;26;20041;-70
2024/04/17 06:11:46;;;;;;;8.55;5.00;;;8.50;99.90;;;;;;5436876;26;20718;-70
2024/04/17 06:14:12;;;;;;;6.55;4.68;;;8.60;99.90;;;;;;5446080;26;19995;-70
2024/04/17 06:16:38;;;;;;;6.53;4.90;;;8.60;99.90;;;;;;5429858;26;20202;-70
2024/04/17 06:19:04;;;;;;;9.63;5.47;;;8.60;99.90;;;;;;5450325;26;20009;-70
2024/04/17 06:21:31;;;;;;;8.20;4.75;;;8.60;99.90;;;;;;5444209;26;20007;-70
2024/04/17 06:23:57;;;;;;;9.95;4.63;;;8.60;99.90;;;;;;5436779;26;19999;-69
2024/04/17 06:26:22;;;;;;;12.25;5.05;;;8.50;99.90;;;;;;5451811;26;19994;-71
2024/04/17 06:28:48;;;;;;;11.05;4.95;;;8.50;99.90;;;;;;5449253;26;19994;-70
2024/04/17 06:31:15;;;;;;;6.93;4.40;;;8.50;99.90;;;;;;5450598;26;20001;-70
2024/04/17 06:33:41;;;;;;;4.97;4.07;;;8.40;99.90;;;;;;5444678;26;20003;-70
2024/04/17 06:36:07;;;;;;;11.25;4.50;;;8.50;99.90;;;;;;5452474;26;20009;-70
2024/04/17 06:38:33;;;;;;;9.55;4.43;;;8.50;99.90;;;;;;5450965;26;20003;-71
2024/04/17 06:40:59;;;;;;;11.07;5.25;;;8.50;99.90;;;;;;5452036;26;20079;-70
2024/04/17 06:43:24;;;;;;;11.02;4.82;;;8.60;99.90;;;;;;5438793;26;20469;-70
2024/04/17 06:45:50;;;;;;;11.32;4.90;;;8.60;99.90;;;;;;5452294;26;20723;-70
2024/04/17 06:48:16;;;;;;;9.32;5.57;;;8.60;99.90;;;;;;5451615;26;20003;-70
2024/04/17 06:50:45;;;;;;;15.15;5.18;;;8.70;99.90;;;;;;5450290;26;19999;-70
2024/04/17 06:53:11;;;;;;;8.50;5.20;;;8.70;99.90;;;;;;5438484;26;20003;-70
2024/04/17 06:55:37;;;;;;;8.55;5.57;;;8.60;99.90;;;;;;5439041;26;20009;-70
2024/04/17 06:58:03;;;;;;;10.27;5.82;;;8.70;99.90;;;;;;5438957;26;20017;-69
2024/04/17 07:00:33;;;;;;;10.75;6.00;;;8.60;99.90;;;;;;5451756;26;20002;-70
2024/04/17 07:02:59;;;;;;;13.43;7.25;;;8.70;99.90;;;;;;5428625;26;20027;-70
2024/04/17 07:05:26;;;;;;;11.13;6.35;;;8.70;99.90;;;;;;5451687;26;20035;-70
2024/04/17 07:07:51;;;;;;;13.55;6.55;;;8.60;99.90;;;;;;5451080;26;20007;-70
2024/04/17 07:10:17;;;;;;;14.48;5.78;;;8.60;99.90;;;;;;5451527;26;20018;-70
2024/04/17 07:12:43;;;;;;;14.68;5.82;;;8.60;99.90;;;;;;5449387;26;20003;-70
2024/04/17 07:15:09;;;;;;;12.20;5.50;;;8.60;99.90;;;;;;5447838;26;20007;-70
2024/04/17 07:17:35;;;;;;;13.02;6.13;;;8.60;99.90;;;;;;5450640;26;19999;-71
2024/04/17 07:20:00;;;;;;;13.32;6.20;;;8.70;99.90;;;;;;5448452;26;20332;-67
2024/04/17 07:22:26;;;;;;;16.00;5.57;;;8.70;99.90;;;;;;5449921;26;20038;-69
2024/04/17 07:24:52;;;;;;;13.15;5.38;;;8.80;99.90;;;;;;5451495;26;20006;-69
2024/04/17 07:27:17;;;;;;;15.07;5.60;;;8.80;99.90;;;;;;5448663;26;20003;-69
2024/04/17 07:29:43;;;;;;;11.63;4.70;;;8.90;99.90;;;;;;5446736;26;20451;-70
2024/04/17 07:32:09;;;;;;;13.02;5.43;;;9.00;99.90;;;;;;5451179;26;20097;-69
2024/04/17 07:34:34;;;;;;;11.20;4.60;;;9.00;99.90;;;;;;5451959;26;20003;-69
2024/04/17 07:37:00;;;;;;;16.60;4.43;;;9.10;99.90;;;;;;5452730;26;20455;-69
2024/04/17 07:39:26;;;;;;;15.18;4.57;;;9.10;99.90;;;;;;5452272;26;20340;-69
2024/04/17 07:41:51;;;;;;;13.13;4.68;;;9.20;99.90;;;;;;5453549;26;20081;-70
2024/04/17 07:44:17;;;;;;;12.00;4.00;;;9.30;99.90;;;;;;5451591;26;19999;-70
2024/04/17 07:46:42;;;;;;;8.48;3.97;;;9.30;99.90;;;;;;5450622;26;20393;-69
2024/04/17 07:49:08;;;;;;;11.85;4.78;;;9.50;99.90;;;;;;5454392;26;20467;-69
2024/04/17 07:51:34;;;;;;;12.95;4.53;;;9.60;99.90;;;;;;5453983;26;20296;-71
2024/04/17 07:54:00;;;;;;;14.02;4.10;;;9.70;99.90;;;;;;5453688;26;20003;-69
2024/04/17 07:56:26;;;;;;;8.77;3.05;;;9.60;99.90;;;;;;5454940;26;20006;-70
2024/04/17 07:58:51;;;;;;;25.00;4.78;;;9.70;99.90;;;;;;5450415;26;20401;-69
2024/04/17 08:01:18;;;;;;;9.93;3.58;;;9.80;99.90;;;;;;5440939;26;20002;-71
2024/04/17 08:03:44;;;;;;;10.70;3.00;;;9.90;99.90;;;;;;5430576;26;19999;-70
2024/04/17 08:06:12;;;;;;;14.68;2.75;;;9.90;99.90;;;;;;5448601;26;20021;-70
2024/04/17 08:09:00;;;;;;;14.57;3.50;;;9.80;99.90;;;;;;5428391;26;20003;-70
2024/04/17 08:11:28;;;;;;;9.00;2.67;;;9.90;99.90;;;;;;5421948;26;20364;-69
2024/04/17 08:13:54;;;;;;;13.02;2.80;;;9.90;99.90;;;;;;5438407;26;20459;-69
2024/04/17 08:16:19;;;;;;;12.07;2.85;;;9.80;99.90;;;;;;5440212;26;20013;-70
2024/04/17 08:18:46;;;;;;;8.43;2.97;;;9.90;99.90;;;;;;5444013;26;20344;-70
2024/04/17 08:21:12;;;;;;;12.30;3.17;;;10.00;99.90;;;;;;5381055;26;19999;-69
2024/04/17 08:23:37;;;;;;;11.85;2.45;;;10.10;99.90;;;;;;5437444;26;20022;-69
2024/04/17 08:26:03;;;;;;;12.63;2.97;;;10.20;99.90;;;;;;5434435;26;19995;-70
2024/04/17 08:28:29;;;;;;;8.95;2.28;;;10.30;99.90;;;;;;5437113;26;20428;-69
2024/04/17 08:30:55;;;;;;;13.48;2.97;;;10.50;99.90;;;;;;5434811;26;19999;-71
2024/04/17 08:33:20;;;;;;;10.57;2.15;;;10.70;99.90;;;;;;5435530;26;19991;-71
2024/04/17 08:35:46;;;;;;;10.07;2.17;;;10.70;99.90;;;;;;5441844;26;19998;-71
2024/04/17 08:38:12;;;;;;;13.25;2.58;;;10.80;99.90;;;;;;5432008;26;20405;-72
2024/04/17 08:40:37;;;;;;;11.50;2.53;;;10.90;99.90;;;;;;5432112;26;20614;-71
2024/04/17 08:43:04;;;;;;;13.40;2.38;;;10.90;99.90;;;;;;5441154;26;20075;-71
2024/04/17 08:45:36;;;;;;;21.17;3.30;;;11.10;99.90;;;;;;5427381;26;20007;-71
2024/04/17 08:48:03;;;;;;;8.25;1.98;;;11.10;99.90;;;;;;5431332;26;20129;-72
2024/04/17 08:50:30;;;;;;;6.57;2.15;;;11.10;99.90;;;;;;5434303;26;19995;-72
2024/04/17 08:53:03;;;;;;;16.08;2.20;;;11.10;99.90;;;;;;5437209;26;20009;-70
2024/04/17 08:55:29;;;;;;;15.00;2.75;;;11.00;99.90;;;;;;5440504;26;20006;-70
2024/04/17 08:57:56;;;;;;;10.23;2.35;;;10.90;99.90;;;;;;5431035;26;20536;-72
2024/04/17 09:00:27;;;;;;;11.00;2.17;;;10.80;99.90;;;;;;5436466;26;20004;-73
2024/04/17 09:02:57;;;;;;;7.85;2.10;;;10.70;99.90;;;;;;5434935;26;20002;-72
2024/04/17 09:05:27;;;;;;;11.05;2.50;;;10.60;99.90;;;;;;5437675;26;19995;-73
2024/04/17 09:07:54;;;;;;;8.85;2.33;;;10.60;99.90;;;;;;5440052;26;20011;-72
2024/04/17 09:10:20;;;;;;;10.45;2.22;;;10.60;99.90;;;;;;5441121;26;20480;-72
2024/04/17 09:12:46;;;;;;;10.10;2.75;;;10.50;99.90;;;;;;5436158;26;20458;-72
2024/04/17 09:15:16;;;;;;;8.25;2.30;;;10.50;99.90;;;;;;5437599;26;20034;-72
2024/04/17 09:17:42;;;;;;;7.50;2.58;;;10.40;99.90;;;;;;5441920;26;20009;-72
2024/04/17 09:20:09;;;;;;;9.80;1.98;;;10.40;99.90;;;;;;5438210;26;19999;-72
2024/04/17 09:22:35;;;;;;;8.13;2.40;;;10.30;99.90;;;;;;5432773;26;20000;-72
2024/04/17 09:25:02;;;;;;;5.65;1.58;;;10.40;99.90;;;;;;5429007;26;20056;-72
2024/04/17 09:27:28;;;;;;;2.22;0.90;;;10.30;99.90;;;;;;5434913;26;20713;-72
2024/04/17 09:29:53;;;;;;;1.50;0.50;;;10.20;99.90;;;;;;5440226;26;19999;-72
2024/04/17 09:32:19;;;;;;;3.55;0.65;;;10.10;99.90;;;;;;5433662;26;20014;-72
2024/04/17 09:34:45;;;;;;;1.75;0.40;;;9.90;99.90;;;;;;5441896;26;20462;-72
2024/04/17 09:37:14;;;;;;;1.50;0.57;;;9.70;99.90;;;;;;5436713;26;20052;-71
2024/04/17 09:39:40;;;;;;;1.30;0.88;;;9.60;99.90;;;;;;5431811;26;20384;-71
2024/04/17 09:42:09;;;;;;;3.20;0.70;;;9.50;99.90;;;;;;5424404;26;20011;-69
2024/04/17 09:44:40;;;;;;;2.05;0.40;;;9.50;99.90;;;;;;5431443;26;20010;-71
2024/04/17 09:47:09;;;;;;;1.77;0.40;;;9.30;99.90;;;;;;5436085;26;20840;-73
2024/04/17 09:49:49;;;;;;;0.70;0.65;;;9.30;99.90;;;;;;5428039;26;20343;-71
2024/04/17 09:52:18;;;;;;;2.80;0.55;;;9.20;99.90;;;;;;5430323;26;20003;-70
2024/04/17 09:54:45;;;;;;;0.98;0.70;;;9.40;99.90;;;;;;5422235;26;20003;-70
2024/04/17 09:57:11;;;;;;;1.40;0.75;;;9.30;99.90;;;;;;5433936;26;20006;-70
2024/04/17 09:59:38;;;;;;;3.33;0.70;;;9.40;99.90;;;;;;5429821;26;20050;-70
2024/04/17 10:02:08;;;;;;;1.60;0.95;;;9.40;99.90;;;;;;5429872;26;20328;-71
2024/04/17 10:04:35;;;;;;;1.58;0.63;;;9.30;99.90;;;;;;5434205;26;20003;-70
2024/04/17 10:07:02;;;;;;;2.50;0.70;;;9.30;99.90;;;;;;5419877;26;20062;-71
2024/04/17 10:09:29;;;;;;;3.58;0.52;;;9.30;99.90;;;;;;5424018;26;20007;-70
2024/04/17 10:11:56;;;;;;;4.55;0.75;;;9.30;99.90;;;;;;5422709;26;20238;-72
2024/04/17 10:14:23;;;;;;;0.95;0.77;;;9.30;99.90;;;;;;5423225;26;20018;-72
2024/04/17 10:16:49;;;;;;;1.10;0.77;;;9.30;99.90;;;;;;5416319;26;20018;-72
2024/04/17 10:19:15;;;;;;;5.05;0.85;;;9.30;99.90;;;;;;5420906;26;20332;-72
2024/04/17 10:21:43;;;;;;;3.08;0.88;;;9.30;99.90;;;;;;5423918;26;20022;-72
2024/04/17 10:24:10;;;;;;;1.25;0.70;;;9.40;99.90;;;;;;5428104;26;20007;-72
2024/04/17 10:26:46;;;;;;;4.10;0.90;;;9.50;99.90;;;;;;5423746;26;20000;-71
2024/04/17 10:29:29;;;;;;;3.58;0.80;;;9.50;99.90;;;;;;5421470;26;20100;-72
2024/04/17 10:32:03;;;;;;;1.50;0.60;;;9.50;99.90;;;;;;5427535;26;19999;-71
2024/04/17 10:34:40;;;;;;;1.35;0.70;;;9.50;99.90;;;;;;5423346;26;21799;-71
2024/04/17 10:37:09;;;;;;;3.08;0.82;;;9.40;99.90;;;;;;5424296;26;20012;-72
2024/04/17 10:39:37;;;;;;;1.50;0.40;;;9.20;99.90;;;;;;5421354;26;20038;-72
2024/04/17 10:42:06;;;;;;;2.22;0.70;;;9.30;99.90;;;;;;5428149;26;19995;-71
2024/04/17 10:44:43;;;;;;;3.53;0.82;;;9.30;99.90;;;;;;5427524;26;20058;-72
2024/04/17 10:47:27;;;;;;;1.30;0.73;;;9.40;99.90;;;;;;5430647;26;20332;-72
2024/04/17 10:49:58;;;;;;;1.17;0.80;;;9.40;99.90;;;;;;5427694;26;19995;-71
2024/04/17 10:52:25;;;;;;;5.10;0.90;;;9.50;99.90;;;;;;5425122;26;20017;-71
2024/04/17 10:54:59;;;;;;;1.13;0.80;;;9.60;99.90;;;;;;5429022;26;20413;-71
2024/04/17 10:57:28;;;;;;;3.75;1.15;;;9.80;99.90;;;;;;5436427;26;20023;-72
2024/04/17 10:59:54;;;;;;;5.43;1.38;;;10.00;99.90;;;;;;5438732;26;20079;-71
2024/04/17 11:02:19;;;;;;;3.03;0.93;;;10.20;99.90;;;;;;5424874;26;20004;-72
2024/04/17 11:04:46;;;;;;;1.58;0.90;;;10.20;99.90;;;;;;5424041;26;20035;-72
2024/04/17 11:07:12;;;;;;;3.42;1.33;;;10.20;99.90;;;;;;5425763;26;20011;-69
2024/04/17 11:09:48;;;;;;;3.45;1.02;;;10.50;99.90;;;;;;5427643;26;20438;-72
2024/04/17 11:12:15;;;;;;;1.92;0.88;;;10.90;99.90;;;;;;5424199;26;20003;-72
2024/04/17 11:14:41;;;;;;;1.88;1.00;;;11.00;99.90;;;;;;5431838;26;20007;-72
2024/04/17 11:17:08;;;;;;;3.58;0.70;;;11.30;99.90;;;;;;5425691;26;20390;-72
2024/04/17 11:19:35;;;;;;;1.73;0.90;;;11.30;99.90;;;;;;5426624;26;20076;-72
2024/04/17 11:22:09;;;;;;;3.25;1.88;;;11.40;99.90;;;;;;5421439;26;20003;-71
2024/04/17 11:24:36;;;;;;;11.00;6.22;;;11.60;99.90;;;;;;5426449;26;20007;-70
2024/04/17 11:27:07;;;;;;;3.10;0.80;;;11.80;99.90;;;;;;5430129;26;20007;-72
2024/04/17 11:29:33;;;;;;;2.28;0.80;;;11.90;99.90;;;;;;5423283;26;20006;-71
2024/04/17 11:31:58;;;;;;;1.35;0.77;;;12.00;99.90;;;;;;5424338;26;20000;-69
2024/04/17 11:34:25;;;;;;;1.58;0.80;;;11.70;99.90;;;;;;5424831;26;20007;-72
2024/04/17 11:36:50;;;;;;;3.13;0.70;;;11.90;99.90;;;;;;5414099;26;20003;-72
2024/04/17 11:39:17;;;;;;;2.35;0.90;;;12.00;99.90;;;;;;5415700;26;20073;-72
2024/04/17 11:41:42;;;;;;;2.67;1.10;;;12.10;99.90;;;;;;5419018;26;20010;-72
2024/04/17 11:44:11;;;;;;;4.25;1.23;;;12.10;99.90;;;;;;5422481;26;19995;-72
2024/04/17 11:46:38;;;;;;;2.15;1.00;;;12.10;99.90;;;;;;5420947;26;20007;-72
2024/04/17 11:49:04;;;;;;;2.60;0.90;;;12.10;99.90;;;;;;5421025;26;19995;-72
2024/04/17 11:51:31;;;;;;;3.25;0.90;;;12.20;99.90;;;;;;5426195;26;20011;-73
2024/04/17 11:53:56;;;;;;;1.00;0.63;;;12.40;99.90;;;;;;5422876;26;20010;-73
2024/04/17 11:56:22;;;;;;;5.88;1.25;;;12.60;99.90;;;;;;5425044;26;19998;-73
2024/04/17 11:58:48;;;;;;;2.75;0.93;;;12.80;99.90;;;;;;5427281;26;20006;-73
2024/04/17 12:01:14;;;;;;;1.08;0.80;;;12.80;99.90;;;;;;5423008;26;19998;-73
2024/04/17 12:03:39;;;;;;;3.50;1.20;;;13.00;99.90;;;;;;5427346;26;20460;-73
2024/04/17 12:06:07;;;;;;;2.58;1.15;;;12.70;99.90;;;;;;5426614;26;20335;-73
2024/04/17 12:08:32;;;;;;;6.05;1.35;;;12.50;99.90;;;;;;5422984;26;20002;-72
2024/04/17 12:10:58;;;;;;;1.88;1.30;;;12.20;99.90;;;;;;5425127;26;20101;-73
2024/04/17 12:13:24;;;;;;;3.45;1.60;;;11.80;99.90;;;;;;5429238;26;19992;-72
2024/04/17 12:15:50;;;;;;;4.45;1.55;;;11.40;99.90;;;;;;5431057;26;20072;-72
2024/04/17 12:18:16;;;;;;;2.35;1.88;;;11.20;99.90;;;;;;5428174;26;20496;-72
2024/04/17 12:20:42;;;;;;;2.80;1.33;;;11.10;99.90;;;;;;5425238;26;20404;-73
2024/04/17 12:23:07;;;;;;;1.80;1.30;;;11.10;99.90;;;;;;5436178;26;20107;-72
2024/04/17 12:28:18;;;;;;;3.03;1.33;;;10.70;99.90;;;;;;5429252;26;20466;-72
2024/04/17 12:30:46;;;;;;;2.85;1.30;;;10.50;99.90;;;;;;5430823;26;20014;-72
2024/04/17 12:33:11;;;;;;;7.65;1.50;;;10.60;99.90;;;;;;5428451;26;20018;-72
2024/04/17 12:35:37;;;;;;;3.03;1.35;;;10.50;99.90;;;;;;5425723;26;20068;-72
2024/04/17 12:38:03;;;;;;;3.10;1.70;;;10.60;99.90;;;;;;5429725;26;20016;-72
2024/04/17 12:40:29;;;;;;;3.45;1.60;;;10.70;99.90;;;;;;5428266;26;20047;-72
2024/04/17 12:42:54;;;;;;;2.15;1.48;;;10.80;99.90;;;;;;5433333;26;20431;-72
2024/04/17 12:45:20;;;;;;;2.55;1.63;;;10.70;99.90;;;;;;5423080;26;20492;-72
2024/04/17 12:47:46;;;;;;;2.45;1.30;;;10.60;99.90;;;;;;5428734;26;20761;-72